Time;durP1;ratioP1;P1;durP2;ratioP2;P2;SDS_P1;SDS_P2;PMS_P1;PMS_P2;Temp;Humidity;BMP_temperature;BMP_pressure;BME280_temperature;BME280_humidity;BME280_pressure;Samples;Min_cycle;Max_cycle;Signal;HPM_P1;HPM_P2
2022/10/24 00:01:17;;;;;;;2.53;1.37;;;;;;;17.27;82.69;155798.47;4976766;28;20465;-78
2022/10/24 00:03:46;;;;;;;2.50;1.77;;;;;;;17.26;84.32;155795.91;4992445;28;20486;-78
2022/10/24 00:06:13;;;;;;;3.60;1.40;;;;;;;17.23;81.66;155789.41;4992819;28;20822;-75
2022/10/24 00:08:42;;;;;;;4.77;1.30;;;;;;;17.18;82.12;155775.09;4973091;28;20570;-78
2022/10/24 00:11:10;;;;;;;4.10;1.37;;;;;;;17.15;83.21;155768.59;4973788;28;20457;-77
2022/10/24 00:13:37;;;;;;;4.53;1.17;;;;;;;17.12;83.29;155759.47;4973928;28;20488;-78
2022/10/24 00:16:04;;;;;;;2.43;1.20;;;;;;;17.09;89.17;155751.63;4992312;28;20536;-75
2022/10/24 00:18:30;;;;;;;4.17;1.20;;;;;;;17.04;87.56;155741.25;4994599;28;20936;-78
2022/10/24 00:20:58;;;;;;;4.97;1.60;;;;;;;16.98;85.39;155725.63;4992576;28;20548;-78
2022/10/24 00:23:25;;;;;;;4.00;1.37;;;;;;;17.00;83.07;155730.81;4975814;28;20457;-78
2022/10/24 00:25:52;;;;;;;5.20;1.10;;;;;;;16.97;86.09;155723.00;4976397;28;20446;-78
2022/10/24 00:28:19;;;;;;;5.10;1.30;;;;;;;16.99;83.69;155728.25;4990263;28;20521;-78
2022/10/24 00:30:45;;;;;;;4.50;1.20;;;;;;;17.04;82.74;155741.25;4990999;28;20552;-78
2022/10/24 00:33:12;;;;;;;2.07;1.40;;;;;;;16.99;84.66;155726.94;4957239;28;20457;-77
2022/10/24 00:35:38;;;;;;;4.10;1.43;;;;;;;16.94;87.81;155713.94;4974504;28;20814;-78
2022/10/24 00:38:06;;;;;;;3.23;1.20;;;;;;;16.92;86.21;155708.69;4989366;28;20461;-77
2022/10/24 00:40:33;;;;;;;5.90;1.47;;;;;;;16.91;86.51;155706.13;4973754;28;20524;-77
2022/10/24 00:43:00;;;;;;;3.23;1.47;;;;;;;16.85;85.41;155691.81;4974336;28;20453;-77
2022/10/24 00:45:43;;;;;;;3.80;1.67;;;;;;;16.86;83.28;155693.13;4974245;28;20564;-77
2022/10/24 00:48:14;;;;;;;3.67;1.40;;;;;;;16.89;83.48;155702.19;4984046;28;20495;-77
2022/10/24 00:50:41;;;;;;;2.57;1.40;;;;;;;16.89;84.91;155702.19;4973106;28;20814;-77
2022/10/24 00:53:09;;;;;;;2.30;1.40;;;;;;;16.84;86.26;155689.19;4990982;28;20454;-77
2022/10/24 00:55:36;;;;;;;3.10;1.57;;;;;;;16.81;86.92;155680.09;4984881;28;20492;-77
2022/10/24 00:58:04;;;;;;;3.87;2.40;;;;;;;16.80;86.79;155678.78;4976304;28;20457;-77
2022/10/24 01:00:32;;;;;;;2.40;1.30;;;;;;;16.83;87.00;155686.59;4970794;28;20457;-77
2022/10/24 01:02:59;;;;;;;3.40;1.70;;;;;;;16.81;85.40;155681.38;4981407;28;20596;-77
2022/10/24 01:05:29;;;;;;;4.87;1.30;;;;;;;16.79;84.75;155674.88;4990282;28;20868;-77
2022/10/24 01:08:01;;;;;;;4.20;1.43;;;;;;;16.75;86.85;155664.47;4971978;28;20543;-77
2022/10/24 01:10:37;;;;;;;7.60;1.73;;;;;;;16.75;85.72;155664.47;4969086;28;20545;-77
2022/10/24 01:13:14;;;;;;;4.90;1.27;;;;;;;16.77;86.42;155670.97;4980165;28;20454;-77
2022/10/24 01:15:48;;;;;;;3.17;1.33;;;;;;;16.73;85.85;155659.28;4987580;28;20460;-77
2022/10/24 01:18:20;;;;;;;5.10;1.43;;;;;;;16.71;89.46;155654.03;4989790;28;20946;-77
2022/10/24 01:21:15;;;;;;;4.87;1.80;;;;;;;16.69;87.38;155650.16;4989154;28;20453;-77
2022/10/24 01:24:01;;;;;;;5.43;1.77;;;;;;;16.67;86.06;155643.66;4979724;28;20461;-77
2022/10/24 01:27:12;;;;;;;5.50;1.80;;;;;;;16.63;86.11;155633.22;4986733;28;20442;-77
2022/10/24 01:29:48;;;;;;;6.20;1.40;;;;;;;16.60;87.60;155625.47;4981411;28;20445;-77
2022/10/24 01:32:19;;;;;;;6.63;1.40;;;;;;;16.61;87.40;155629.34;4987589;28;21006;-77
2022/10/24 01:34:48;;;;;;;5.70;2.00;;;;;;;16.58;86.10;155621.53;4974171;28;20446;-77
2022/10/24 01:37:18;;;;;;;8.17;1.73;;;;;;;16.57;86.99;155618.97;4989146;28;20468;-77
2022/10/24 01:39:48;;;;;;;9.90;2.70;;;;;;;16.58;89.19;155620.22;4992593;28;20453;-77
2022/10/24 01:42:16;;;;;;;6.07;1.77;;;;;;;16.54;85.98;155611.16;4988652;28;20458;-77
2022/10/24 01:44:48;;;;;;;5.20;1.93;;;;;;;16.56;86.13;155615.03;4985315;28;20560;-77
2022/10/24 01:47:18;;;;;;;4.17;1.77;;;;;;;16.57;85.88;155618.97;4971728;28;21132;-77
2022/10/24 01:49:48;;;;;;;3.63;1.47;;;;;;;16.65;86.13;155639.78;4980935;28;20458;-90
2022/10/24 01:52:16;;;;;;;3.33;1.40;;;;;;;16.72;85.10;155657.97;4987342;28;20480;-90
2022/10/24 01:54:43;;;;;;;4.20;2.00;;;;;;;16.66;86.16;155641.03;4990235;28;20481;-90
2022/10/24 01:57:10;;;;;;;3.93;1.40;;;;;;;16.66;86.31;155642.34;4966077;28;20460;-90
2022/10/24 01:59:44;;;;;;;4.80;1.60;;;;;;;16.67;86.47;155644.97;4994873;28;20445;-91
2022/10/24 02:02:16;;;;;;;5.80;1.63;;;;;;;16.60;87.34;155625.47;4965552;28;20461;-91
2022/10/24 02:04:49;;;;;;;6.60;1.47;;;;;;;16.58;87.94;155620.22;4973608;28;20551;-90
2022/10/24 02:07:18;;;;;;;5.80;1.53;;;;;;;16.52;89.17;155605.88;4996809;28;20464;-90
2022/10/24 02:09:48;;;;;;;5.40;1.70;;;;;;;16.48;89.14;155595.47;4989535;28;20536;-90
2022/10/24 02:12:16;;;;;;;5.07;1.67;;;;;;;16.50;90.93;155600.66;4974616;28;20461;-91
2022/10/24 02:14:45;;;;;;;2.30;1.40;;;;;;;16.43;90.80;155583.78;4973970;28;20440;-91
2022/10/24 02:17:13;;;;;;;3.33;1.80;;;;;;;16.41;90.52;155577.28;4989373;28;20461;-91
2022/10/24 02:19:40;;;;;;;4.87;1.50;;;;;;;16.43;90.88;155583.78;4974456;28;20456;-91
2022/10/24 02:22:14;;;;;;;4.20;1.63;;;;;;;16.42;90.85;155579.88;4995065;28;20555;-91
2022/10/24 02:24:43;;;;;;;2.17;1.53;;;;;;;16.40;91.79;155574.66;4993265;28;20864;-91
2022/10/24 02:27:13;;;;;;;6.30;1.50;;;;;;;16.38;92.93;155569.47;4976741;28;20952;-91
2022/10/24 02:29:43;;;;;;;4.30;1.67;;;;;;;16.41;91.97;155578.56;4975086;28;20510;-91
2022/10/24 02:32:13;;;;;;;5.17;2.00;;;;;;;16.36;91.72;155565.56;4972910;28;20465;-91
2022/10/24 02:34:40;;;;;;;7.27;1.67;;;;;;;16.40;91.91;155574.66;4991693;28;21043;-91
2022/10/24 02:37:08;;;;;;;3.90;1.83;;;;;;;16.41;91.84;155577.28;4978445;28;20443;-91
2022/10/24 02:39:35;;;;;;;4.83;1.70;;;;;;;16.38;92.37;155569.47;4994569;28;20437;-91
2022/10/24 02:42:03;;;;;;;4.50;2.00;;;;;;;16.34;92.49;155560.34;4993312;28;20457;-91
2022/10/24 02:44:31;;;;;;;4.30;1.63;;;;;;;16.33;92.84;155556.47;4976299;28;20830;-91
2022/10/24 02:47:00;;;;;;;5.27;1.73;;;;;;;16.29;93.58;155546.06;4991389;28;20461;-91
2022/10/24 02:49:28;;;;;;;4.10;1.50;;;;;;;16.29;94.36;155546.06;4992340;28;20477;-90
2022/10/24 02:51:55;;;;;;;3.40;1.80;;;;;;;16.25;93.89;155536.97;4988336;28;20574;-91
2022/10/24 02:54:22;;;;;;;6.03;2.00;;;;;;;16.27;95.03;155540.84;4995926;28;20793;-91
2022/10/24 02:56:52;;;;;;;4.57;1.90;;;;;;;16.29;94.90;155547.34;4996521;28;20520;-91
2022/10/24 02:59:19;;;;;;;6.30;2.70;;;;;;;16.28;95.15;155543.47;4992936;28;20508;-91
2022/10/24 03:01:45;;;;;;;5.10;2.47;;;;;;;16.24;95.28;155533.06;4993975;28;20503;-90
2022/10/24 03:04:12;;;;;;;5.00;2.37;;;;;;;16.19;97.70;155520.03;4974397;28;20460;-91
2022/10/24 03:06:40;;;;;;;5.27;2.03;;;;;;;16.21;96.21;155525.25;4991603;28;20532;-91
2022/10/24 03:09:06;;;;;;;2.60;1.90;;;;;;;16.17;97.35;155514.88;4992542;28;21068;-91
2022/10/24 03:11:33;;;;;;;5.30;2.83;;;;;;;16.17;96.74;155514.88;4973928;28;20461;-91
2022/10/24 03:14:00;;;;;;;5.00;2.20;;;;;;;16.16;97.57;155513.53;4985969;28;20552;-91
2022/10/24 03:16:27;;;;;;;5.30;2.53;;;;;;;16.17;98.48;155514.88;4992462;28;20449;-90
2022/10/24 03:18:54;;;;;;;5.30;2.33;;;;;;;16.14;97.84;155507.06;4994874;28;20445;-91
2022/10/24 03:21:21;;;;;;;5.00;2.40;;;;;;;16.13;97.42;155505.75;4976310;28;20463;-91
2022/10/24 03:23:49;;;;;;;7.53;2.63;;;;;;;16.10;97.90;155497.94;4985388;28;20457;-91
2022/10/24 03:26:16;;;;;;;8.23;3.13;;;;;;;16.09;100.00;155494.06;4999786;28;20548;-91
2022/10/24 03:28:42;;;;;;;4.80;3.33;;;;;;;16.08;99.32;155491.44;4998063;28;20479;-89
2022/10/24 03:31:09;;;;;;;3.67;2.57;;;;;;;16.09;99.63;155494.06;4977649;28;20484;-89
2022/10/24 03:33:36;;;;;;;4.33;1.93;;;;;;;16.11;100.00;155499.25;4988191;28;20852;-89
2022/10/24 03:36:03;;;;;;;8.37;2.60;;;;;;;16.09;99.83;155494.06;4991858;28;20463;-90
2022/10/24 03:38:30;;;;;;;7.53;3.10;;;;;;;16.06;100.00;155487.56;4991984;28;20533;-91
2022/10/24 03:40:58;;;;;;;6.00;2.17;;;;;;;16.02;100.00;155475.88;4992215;28;20565;-92
2022/10/24 03:43:25;;;;;;;6.07;2.60;;;;;;;16.01;100.00;155473.25;4992792;28;20962;-92
2022/10/24 03:45:51;;;;;;;8.47;3.10;;;;;;;15.98;100.00;155465.44;4989714;28;20449;-91
2022/10/24 03:48:18;;;;;;;6.70;2.53;;;;;;;16.01;100.00;155474.56;4993494;28;20477;-91
2022/10/24 03:50:45;;;;;;;5.67;2.37;;;;;;;15.96;100.00;155460.25;4986311;28;20457;-92
2022/10/24 03:53:11;;;;;;;7.30;3.20;;;;;;;15.96;100.00;155460.25;4989098;28;20830;-91
2022/10/24 03:55:38;;;;;;;10.70;2.93;;;;;;;15.91;100.00;155447.25;4994184;28;20492;-91
2022/10/24 03:58:09;;;;;;;4.93;2.17;;;;;;;15.87;100.00;155436.81;4960971;28;20450;-91
2022/10/24 04:00:38;;;;;;;4.70;2.30;;;;;;;15.87;100.00;155436.81;4987979;28;20818;-91
2022/10/24 04:03:05;;;;;;;6.60;2.43;;;;;;;15.84;100.00;155430.31;4988002;28;20492;-91
2022/10/24 04:05:33;;;;;;;6.60;2.57;;;;;;;15.85;100.00;155432.94;4992080;28;20546;-91
2022/10/24 04:08:00;;;;;;;6.43;2.40;;;;;;;15.86;100.00;155434.25;4966859;28;20450;-77
2022/10/24 04:10:27;;;;;;;5.83;2.30;;;;;;;15.84;100.00;155431.63;4991756;28;21260;-77
2022/10/24 04:12:54;;;;;;;7.10;2.53;;;;;;;15.85;100.00;155432.94;4991625;28;20454;-77
2022/10/24 04:15:22;;;;;;;5.30;2.33;;;;;;;15.83;100.00;155427.75;4973493;28;20953;-77
2022/10/24 04:17:49;;;;;;;7.13;2.23;;;;;;;15.81;100.00;155423.81;4991426;28;20472;-77
2022/10/24 04:20:19;;;;;;;5.10;2.20;;;;;;;15.83;100.00;155429.03;4979389;28;20503;-77
2022/10/24 04:22:46;;;;;;;3.40;2.10;;;;;;;15.80;100.00;155419.94;4987403;28;20805;-77
2022/10/24 04:25:13;;;;;;;5.20;2.33;;;;;;;15.77;100.00;155413.47;4973576;28;20449;-77
2022/10/24 04:27:40;;;;;;;5.87;1.90;;;;;;;15.81;100.00;155422.53;4992607;28;20798;-77
2022/10/24 04:30:07;;;;;;;4.80;2.70;;;;;;;15.80;100.00;155421.25;4998545;28;20475;-77
2022/10/24 04:32:36;;;;;;;5.23;2.40;;;;;;;15.76;100.00;155410.84;4994147;28;20450;-77
2022/10/24 04:35:04;;;;;;;5.30;2.40;;;;;;;15.79;100.00;155418.63;4974966;28;20446;-77
2022/10/24 04:37:30;;;;;;;4.07;2.00;;;;;;;15.78;100.00;155416.03;4991571;28;20540;-77
2022/10/24 04:39:57;;;;;;;8.60;2.73;;;;;;;15.80;100.00;155419.94;4990602;28;20504;-77
2022/10/24 04:42:25;;;;;;;6.47;2.43;;;;;;;15.79;100.00;155418.63;4991695;28;20452;-77
2022/10/24 04:44:52;;;;;;;7.73;3.30;;;;;;;15.77;100.00;155413.47;4990144;28;20456;-77
2022/10/24 04:47:19;;;;;;;7.87;2.60;;;;;;;15.83;100.00;155429.03;4988073;28;20528;-91
2022/10/24 04:49:47;;;;;;;8.10;2.77;;;;;;;15.83;100.00;155429.03;4982524;28;20476;-91
2022/10/24 04:52:13;;;;;;;4.57;2.37;;;;;;;15.81;100.00;155423.81;4988002;28;20944;-91
2022/10/24 04:54:40;;;;;;;8.63;3.50;;;;;;;15.88;100.00;155439.44;4989360;28;20521;-91
2022/10/24 04:57:07;;;;;;;5.83;2.40;;;;;;;15.96;100.00;155460.25;4992817;28;20556;-91
2022/10/24 04:59:33;;;;;;;8.57;2.60;;;;;;;15.89;100.00;155443.31;4992747;28;20516;-91
2022/10/24 05:02:00;;;;;;;6.30;2.60;;;;;;;15.84;100.00;155431.63;4972907;28;20461;-91
2022/10/24 05:04:27;;;;;;;11.60;2.37;;;;;;;15.80;100.00;155421.25;4990147;28;20508;-91
2022/10/24 05:06:55;;;;;;;4.53;1.90;;;;;;;15.80;100.00;155421.25;4995314;28;20552;-91
2022/10/24 05:09:21;;;;;;;3.43;2.40;;;;;;;15.76;100.00;155410.84;4976440;28;20477;-91
2022/10/24 05:11:48;;;;;;;7.10;2.20;;;;;;;15.77;100.00;155413.47;4997503;28;20453;-77
2022/10/24 05:14:15;;;;;;;8.47;2.37;;;;;;;15.73;100.00;155403.03;4988853;28;20456;-91
2022/10/24 05:16:41;;;;;;;4.20;2.03;;;;;;;15.72;100.00;155400.47;4965472;28;20485;-91
2022/10/24 05:19:08;;;;;;;8.87;2.40;;;;;;;15.73;100.00;155403.03;4987606;28;20492;-91
2022/10/24 05:21:35;;;;;;;5.13;2.90;;;;;;;15.75;100.00;155408.22;4989721;28;20924;-91
2022/10/24 05:24:03;;;;;;;7.57;2.97;;;;;;;15.79;100.00;155417.34;4971315;28;20818;-91
2022/10/24 05:26:30;;;;;;;4.63;2.40;;;;;;;15.80;100.00;155419.94;4972941;28;21142;-77
2022/10/24 05:28:56;;;;;;;11.63;2.30;;;;;;;15.82;100.00;155426.44;4989888;28;20588;-77
2022/10/24 05:31:23;;;;;;;7.03;2.20;;;;;;;15.84;100.00;155431.63;4972557;28;20462;-77
2022/10/24 05:33:50;;;;;;;5.27;2.13;;;;;;;15.88;100.00;155439.44;4992035;28;20450;-77
2022/10/24 05:36:17;;;;;;;6.43;2.23;;;;;;;15.90;100.00;155444.63;4958758;28;20449;-77
2022/10/24 05:38:43;;;;;;;7.03;2.53;;;;;;;15.88;100.00;155439.44;4988380;28;20461;-77
2022/10/24 05:41:11;;;;;;;6.00;2.43;;;;;;;15.88;100.00;155439.44;4972974;28;20965;-77
2022/10/24 05:43:38;;;;;;;4.50;1.90;;;;;;;15.88;100.00;155439.44;4987170;28;20904;-77
2022/10/24 05:46:06;;;;;;;7.97;1.83;;;;;;;15.87;100.00;155436.81;4971010;28;21064;-77
2022/10/24 05:48:32;;;;;;;5.70;2.40;;;;;;;15.93;100.00;155453.75;4971428;28;20465;-77
2022/10/24 05:50:59;;;;;;;6.47;1.80;;;;;;;15.99;100.00;155468.06;4990996;28;20463;-77
2022/10/24 05:53:26;;;;;;;4.93;1.83;;;;;;;16.05;100.00;155483.63;4990214;28;20855;-77
2022/10/24 05:55:53;;;;;;;5.43;1.97;;;;;;;16.02;100.00;155475.88;4989507;28;20485;-77
2022/10/24 05:58:21;;;;;;;7.17;1.87;;;;;;;16.04;100.00;155481.06;4987791;28;20495;-77
2022/10/24 06:00:48;;;;;;;5.90;2.13;;;;;;;16.05;100.00;155483.63;4970598;28;20806;-77
2022/10/24 06:03:15;;;;;;;3.93;1.90;;;;;;;16.04;100.00;155481.06;4987208;28;20484;-77
2022/10/24 06:05:41;;;;;;;4.13;1.90;;;;;;;16.03;100.00;155478.44;4991716;28;20446;-77
2022/10/24 06:08:08;;;;;;;4.37;1.97;;;;;;;16.03;100.00;155479.75;4974460;28;20453;-77
2022/10/24 06:10:36;;;;;;;4.13;1.60;;;;;;;16.05;100.00;155484.94;4972098;28;20861;-77
2022/10/24 06:13:02;;;;;;;6.93;2.23;;;;;;;16.05;100.00;155484.94;4989744;28;20461;-77
2022/10/24 06:15:31;;;;;;;7.07;1.77;;;;;;;16.04;100.00;155482.38;4989416;28;20454;-77
2022/10/24 06:17:57;;;;;;;3.10;1.80;;;;;;;16.03;100.00;155478.44;4989468;28;20444;-77
2022/10/24 06:20:24;;;;;;;5.53;1.80;;;;;;;16.07;100.00;155488.88;4988189;28;20540;-77
2022/10/24 06:22:50;;;;;;;6.43;2.10;;;;;;;16.07;100.00;155490.13;4988365;28;20492;-77
2022/10/24 06:25:17;;;;;;;4.23;1.87;;;;;;;16.08;100.00;155492.75;4984646;28;20469;-77
2022/10/24 06:27:44;;;;;;;3.37;1.80;;;;;;;16.13;100.00;155504.44;4972810;28;20486;-77
2022/10/24 06:30:11;;;;;;;3.63;1.70;;;;;;;16.07;100.00;155488.88;4988930;28;20512;-77
2022/10/24 06:32:40;;;;;;;3.33;1.70;;;;;;;16.05;100.00;155484.94;4990495;28;20479;-77
2022/10/24 06:35:07;;;;;;;7.30;2.10;;;;;;;16.02;100.00;155475.88;4991295;28;20472;-77
2022/10/24 06:37:35;;;;;;;5.13;2.30;;;;;;;15.97;100.00;155464.13;4973215;28;20445;-77
2022/10/24 06:40:02;;;;;;;3.87;2.23;;;;;;;15.93;100.00;155453.75;4987099;28;20548;-77
2022/10/24 06:42:28;;;;;;;7.03;1.90;;;;;;;15.91;100.00;155447.25;4989144;28;20488;-77
2022/10/24 06:44:56;;;;;;;2.37;1.50;;;;;;;15.91;100.00;155447.25;4973219;28;20948;-77
2022/10/24 06:47:23;;;;;;;4.93;2.10;;;;;;;15.96;100.00;155460.25;4973732;28;20459;-77
2022/10/24 06:49:51;;;;;;;5.00;2.10;;;;;;;15.91;100.00;155448.56;4973032;28;20869;-77
2022/10/24 06:52:17;;;;;;;5.50;2.00;;;;;;;15.90;100.00;155444.63;4991396;28;20445;-77
2022/10/24 06:54:44;;;;;;;3.10;1.70;;;;;;;15.88;100.00;155439.44;4990961;28;20445;-77
2022/10/24 06:57:11;;;;;;;3.40;2.27;;;;;;;15.88;100.00;155440.75;4989912;28;20469;-77
2022/10/24 06:59:37;;;;;;;3.53;1.73;;;;;;;15.87;100.00;155436.81;4990233;28;20535;-77
2022/10/24 07:02:04;;;;;;;5.10;1.57;;;;;;;15.87;100.00;155436.81;4991360;28;20433;-77
2022/10/24 07:04:31;;;;;;;3.53;1.60;;;;;;;15.86;100.00;155434.25;4991700;28;20443;-77
2022/10/24 07:06:59;;;;;;;4.37;2.20;;;;;;;15.87;100.00;155436.81;4984990;28;20449;-77
2022/10/24 07:09:27;;;;;;;4.93;2.10;;;;;;;15.87;100.00;155438.13;4990279;28;20508;-77
2022/10/24 07:11:54;;;;;;;7.10;2.60;;;;;;;15.89;100.00;155442.00;4992639;28;20445;-77
2022/10/24 07:14:21;;;;;;;4.17;2.03;;;;;;;15.89;100.00;155442.00;4998119;28;20562;-77
2022/10/24 07:16:47;;;;;;;3.53;2.20;;;;;;;15.87;100.00;155436.81;4993344;28;20434;-77
2022/10/24 07:19:14;;;;;;;4.37;2.20;;;;;;;15.85;100.00;155432.94;4976261;28;20902;-77
2022/10/24 07:21:41;;;;;;;3.90;2.20;;;;;;;15.85;100.00;155432.94;4977328;28;20437;-77
2022/10/24 07:24:11;;;;;;;3.77;2.10;;;;;;;15.82;100.00;155426.44;4994256;28;20448;-77
2022/10/24 07:26:38;;;;;;;2.97;2.03;;;;;;;15.84;100.00;155431.63;4993237;28;20429;-77
2022/10/24 07:29:08;;;;;;;5.13;2.00;;;;;;;15.83;100.00;155429.03;4992505;28;20469;-78
2022/10/24 07:31:35;;;;;;;5.53;2.47;;;;;;;15.80;100.00;155421.25;4994351;28;20769;-78
2022/10/24 07:34:04;;;;;;;4.63;2.30;;;;;;;15.80;100.00;155421.25;4976330;28;20815;-77
2022/10/24 07:36:31;;;;;;;5.43;2.10;;;;;;;15.78;100.00;155416.03;4991709;28;20936;-78
2022/10/24 07:38:59;;;;;;;3.40;2.57;;;;;;;15.77;100.00;155413.47;4959546;28;20497;-77
2022/10/24 07:41:31;;;;;;;5.70;2.67;;;;;;;15.74;100.00;155405.66;4972699;28;20457;-77
2022/10/24 07:43:58;;;;;;;5.70;2.40;;;;;;;15.75;100.00;155406.97;4984272;28;20537;-77
2022/10/24 07:46:25;;;;;;;5.70;2.70;;;;;;;15.75;100.00;155408.22;4990667;28;20484;-78
2022/10/24 07:48:53;;;;;;;5.43;2.50;;;;;;;15.75;100.00;155406.97;4988066;28;21023;-78
2022/10/24 07:51:21;;;;;;;4.10;2.40;;;;;;;15.79;100.00;155418.63;4993851;28;20469;-77
2022/10/24 07:53:47;;;;;;;8.10;2.87;;;;;;;15.81;100.00;155423.81;4971907;28;20461;-77
2022/10/24 07:56:16;;;;;;;6.80;2.60;;;;;;;15.82;100.00;155426.44;4958275;28;20804;-77
2022/10/24 07:58:45;;;;;;;4.50;2.00;;;;;;;15.83;100.00;155429.03;4974935;28;20446;-77
2022/10/24 08:01:15;;;;;;;3.73;2.50;;;;;;;15.82;100.00;155426.44;4972492;28;20431;-77
2022/10/24 08:03:42;;;;;;;6.13;2.37;;;;;;;15.80;100.00;155419.94;4952149;28;20466;-77
2022/10/24 08:06:13;;;;;;;5.00;2.33;;;;;;;15.77;100.00;155413.47;4973041;28;20442;-78
2022/10/24 08:08:40;;;;;;;4.10;2.23;;;;;;;15.76;100.00;155410.84;4968438;28;20458;-77
2022/10/24 08:11:08;;;;;;;6.17;2.53;;;;;;;15.75;100.00;155408.22;4971555;28;20474;-78
2022/10/24 08:13:35;;;;;;;6.07;2.50;;;;;;;15.71;100.00;155396.53;4965526;28;20454;-78
2022/10/24 08:16:05;;;;;;;5.00;2.27;;;;;;;15.65;100.00;155382.22;4957185;28;20446;-78
2022/10/24 08:18:31;;;;;;;3.93;2.03;;;;;;;15.62;100.00;155373.16;4989012;28;20457;-78
2022/10/24 08:21:00;;;;;;;5.40;3.23;;;;;;;15.64;100.00;155378.34;4987672;28;20463;-78
2022/10/24 08:23:27;;;;;;;4.73;2.10;;;;;;;15.57;100.00;155361.44;4988461;28;20483;-78
2022/10/24 08:25:54;;;;;;;7.10;2.57;;;;;;;15.49;100.00;155339.38;4956038;28;20437;-76
2022/10/24 08:28:22;;;;;;;4.63;1.90;;;;;;;15.41;100.00;155318.53;4986768;28;20458;-76
2022/10/24 08:30:55;;;;;;;3.10;2.13;;;;;;;15.38;100.00;155310.72;4984628;28;20564;-76
2022/10/24 08:33:23;;;;;;;4.67;2.10;;;;;;;15.37;100.00;155309.41;4966899;28;21168;-76
2022/10/24 08:35:50;;;;;;;4.93;2.00;;;;;;;15.39;100.00;155313.28;4957574;28;20517;-76
2022/10/24 08:38:17;;;;;;;3.57;2.00;;;;;;;15.43;100.00;155325.00;4970471;28;20586;-78
2022/10/24 08:40:47;;;;;;;3.60;1.93;;;;;;;15.43;100.00;155325.00;4968457;28;20451;-78
2022/10/24 08:43:15;;;;;;;4.80;2.20;;;;;;;15.45;100.00;155328.91;4956437;28;20490;-76
2022/10/24 08:45:46;;;;;;;5.60;2.00;;;;;;;15.48;100.00;155336.75;4970902;28;20454;-76
2022/10/24 08:48:14;;;;;;;5.03;2.30;;;;;;;15.51;100.00;155345.88;4935896;29;20444;-76
2022/10/24 08:50:47;;;;;;;9.23;2.40;;;;;;;15.53;100.00;155351.06;4966129;28;20646;-76
2022/10/24 08:53:19;;;;;;;4.50;2.10;;;;;;;15.56;100.00;155357.56;4968635;28;20961;-78
2022/10/24 08:55:48;;;;;;;6.87;2.40;;;;;;;15.55;100.00;155354.94;4981546;28;20477;-77
2022/10/24 08:58:20;;;;;;;7.73;2.60;;;;;;;15.58;100.00;155362.75;4991534;28;20530;-77
2022/10/24 09:00:48;;;;;;;3.83;2.23;;;;;;;15.64;100.00;155378.34;4992330;28;20456;-77
2022/10/24 09:03:21;;;;;;;6.90;2.20;;;;;;;15.63;100.00;155377.03;4972109;28;20454;-77
2022/10/24 09:05:52;;;;;;;4.10;2.80;;;;;;;15.60;100.00;155367.91;4991529;28;20540;-77
2022/10/24 09:08:24;;;;;;;5.80;2.70;;;;;;;15.59;100.00;155365.34;4992432;28;20449;-77
2022/10/24 09:10:54;;;;;;;4.30;2.47;;;;;;;15.54;100.00;155352.38;4971886;28;20992;-77
2022/10/24 09:13:22;;;;;;;6.10;2.63;;;;;;;15.55;100.00;155354.94;4990181;28;20461;-77
2022/10/24 09:15:49;;;;;;;4.57;2.83;;;;;;;15.57;100.00;155361.44;4975688;28;20801;-77
2022/10/24 09:18:19;;;;;;;4.80;2.70;;;;;;;15.56;100.00;155358.84;4990999;28;20430;-77
2022/10/24 09:20:48;;;;;;;4.10;2.30;;;;;;;15.58;100.00;155362.75;4992394;28;20415;-77
2022/10/24 09:23:16;;;;;;;5.77;2.20;;;;;;;15.58;100.00;155364.03;4988819;28;20457;-77
2022/10/24 09:25:48;;;;;;;3.97;2.60;;;;;;;15.59;100.00;155366.66;4989113;28;20552;-77
2022/10/24 09:28:15;;;;;;;3.70;2.40;;;;;;;15.64;100.00;155379.66;4983250;28;21074;-77
2022/10/24 09:30:42;;;;;;;4.53;2.37;;;;;;;15.63;100.00;155375.72;4987696;28;20508;-76
2022/10/24 09:33:18;;;;;;;5.57;2.50;;;;;;;15.65;100.00;155382.22;4973052;28;20512;-76
2022/10/24 09:35:49;;;;;;;5.43;2.60;;;;;;;15.67;100.00;155387.41;4972601;28;20501;-76
2022/10/24 09:38:33;;;;;;;4.03;1.90;;;;;;;15.66;100.00;155383.53;4987270;28;20453;-77
2022/10/24 09:41:03;;;;;;;3.87;2.60;;;;;;;15.64;100.00;155379.66;4965180;28;20446;-77
2022/10/24 09:43:38;;;;;;;5.33;2.50;;;;;;;15.67;100.00;155387.41;4975156;28;20485;-77
2022/10/24 09:46:07;;;;;;;5.13;2.17;;;;;;;15.67;100.00;155386.16;4965681;28;20441;-77
2022/10/24 09:48:44;;;;;;;4.60;2.53;;;;;;;15.64;100.00;155378.34;4992182;28;20547;-77
2022/10/24 09:51:18;;;;;;;4.23;2.20;;;;;;;15.63;100.00;155377.03;4955278;28;20497;-77
2022/10/24 09:54:04;;;;;;;4.33;2.50;;;;;;;15.66;100.00;155384.84;4971960;28;20500;-77
2022/10/24 09:56:37;;;;;;;5.83;2.70;;;;;;;15.67;100.00;155386.16;4985940;28;20921;-77
2022/10/24 09:59:19;;;;;;;3.80;2.20;;;;;;;15.66;100.00;155384.84;4991443;28;20811;-77
2022/10/24 10:01:46;;;;;;;6.37;2.77;;;;;;;15.69;100.00;155391.34;4970998;28;20854;-76
2022/10/24 10:04:17;;;;;;;3.30;2.07;;;;;;;15.67;100.00;155387.41;4991597;28;20478;-78
2022/10/24 10:06:45;;;;;;;3.93;2.40;;;;;;;15.68;100.00;155390.03;4988315;28;20468;-77
2022/10/24 10:09:15;;;;;;;8.33;2.40;;;;;;;15.70;100.00;155395.22;4991831;28;20785;-77
2022/10/24 10:11:42;;;;;;;5.93;2.60;;;;;;;15.73;100.00;155401.72;4970652;28;20477;-76
2022/10/24 10:14:25;;;;;;;5.33;2.50;;;;;;;15.73;100.00;155401.72;4969903;28;20529;-77
2022/10/24 10:16:59;;;;;;;5.47;2.87;;;;;;;15.82;100.00;155425.13;4970622;28;20481;-90
2022/10/24 10:19:29;;;;;;;5.03;2.70;;;;;;;15.87;100.00;155436.81;4977000;28;20458;-88
2022/10/24 10:22:00;;;;;;;6.10;2.60;;;;;;;15.91;100.00;155447.25;4958340;28;20450;-77
2022/10/24 10:24:38;;;;;;;4.93;2.90;;;;;;;15.91;100.00;155447.25;4973574;28;21276;-77
2022/10/24 10:27:29;;;;;;;4.60;2.57;;;;;;;15.96;100.00;155461.56;4992008;28;20477;-77
2022/10/24 10:30:10;;;;;;;4.23;2.10;;;;;;;16.02;100.00;155477.13;4984161;28;20523;-78
2022/10/24 10:32:42;;;;;;;4.27;2.10;;;;;;;16.05;100.00;155483.63;4987122;28;20472;-77
2022/10/24 10:35:13;;;;;;;5.47;3.03;;;;;;;16.10;100.00;155497.94;4990765;28;21000;-77
2022/10/24 10:37:42;;;;;;;4.80;2.23;;;;;;;16.15;100.00;155509.66;4991104;28;20954;-77
2022/10/24 10:40:18;;;;;;;5.30;1.97;;;;;;;16.20;100.00;155522.66;4972925;28;20975;-77
2022/10/24 10:42:54;;;;;;;8.70;2.77;;;;;;;16.23;100.00;155531.75;4961760;28;20712;-78
2022/10/24 10:45:33;;;;;;;5.00;2.27;;;;;;;16.23;100.00;155530.47;4977667;28;20437;-77
2022/10/24 10:48:06;;;;;;;3.20;1.80;;;;;;;16.29;100.00;155546.06;4976111;28;20543;-77
2022/10/24 10:50:38;;;;;;;4.60;1.70;;;;;;;16.30;100.00;155548.66;4995057;28;20468;-77
2022/10/24 10:53:17;;;;;;;3.23;2.13;;;;;;;16.28;100.00;155543.47;4977447;28;20465;-77
2022/10/24 10:55:51;;;;;;;5.37;2.07;;;;;;;16.33;100.00;155556.47;4993379;28;20512;-77
2022/10/24 10:58:25;;;;;;;3.97;1.40;;;;;;;16.33;100.00;155556.47;4976919;28;20499;-77
2022/10/24 11:00:59;;;;;;;2.90;1.50;;;;;;;16.32;100.00;155553.84;4990542;28;20438;-77
2022/10/24 11:03:38;;;;;;;3.40;1.80;;;;;;;16.30;100.00;155549.97;4975013;28;20534;-77
2022/10/24 11:06:14;;;;;;;4.10;1.50;;;;;;;16.29;100.00;155546.06;4975594;28;20423;-77
2022/10/24 11:08:55;;;;;;;3.30;1.63;;;;;;;16.32;100.00;155555.16;4982590;28;20515;-77
2022/10/24 11:11:27;;;;;;;2.50;1.30;;;;;;;16.25;100.00;155535.66;4986808;28;20461;-77
2022/10/24 11:13:57;;;;;;;2.53;1.33;;;;;;;16.23;100.00;155530.47;4977945;28;20595;-77
2022/10/24 11:16:26;;;;;;;4.83;1.47;;;;;;;16.22;100.00;155527.84;4993654;28;20872;-77
2022/10/24 11:18:54;;;;;;;2.10;1.20;;;;;;;16.22;100.00;155529.16;4996280;28;20480;-77
2022/10/24 11:21:23;;;;;;;3.00;1.47;;;;;;;16.23;100.00;155531.75;4981272;28;20443;-77
2022/10/24 11:23:53;;;;;;;2.10;1.00;;;;;;;16.26;100.00;155538.25;4974062;28;20446;-77
2022/10/24 11:26:25;;;;;;;2.43;1.17;;;;;;;16.23;100.00;155531.75;4987414;28;20460;-77
2022/10/24 11:28:56;;;;;;;2.60;1.27;;;;;;;16.19;100.00;155521.38;4992312;28;20454;-77